Terminal Aerodrome Forecast
Issued by NWS Greer, SC

Current Version | Previous Version | Text Only | Print | Product List | Glossary On
Versions: 1 2 3 4 5 6 7 8 9 10 11 12 13 14 15 16 17 18 19 20 21 22 23 24 25 26 27 28 29 30 31 32 33 34 35 36 37 38 39 40 41 42 43 44 45 46 47 48 49 50
000
FTUS42 KGSP 250536
TAFCLT
TAF
KCLT 250536Z 2506/2612 18014G18KT P6SM FEW250
     FM251400 21010G20KT P6SM VCSH BKN080
     FM251700 22010G18KT P6SM -SHRA OVC030
     FM252000 22009KT P6SM -SHRA OVC050
     FM260700 27003KT 5SM -SHRA OVC060=

USA.gov is the U.S. government's official web portal to all federal, state and local government web resources and services.